BLR weather

Kempegowda International Airport
Bangalore, Karnataka, India

Public forecast

Using degrees Celsius for public forecast. Weather courtesy of forecast.io.

METAR (pilot weather report)

Retrieved 2019/06/16 23:30 UTC (25 minutes ago):

VOBL 162330Z 27012KT 6000 SCT012 22/22 Q1014 NOSIG

TAF (pilot weather forecast)

Retrieved 2019/06/16 18:00 UTC (6 hours ago):

TAF VOBL 161700Z 1618/1724 27010KT 6000 SCT012 TEMPO 1700/1703 4000 BR SCT010 SCT012 TEMPO 1709/1715 5000 RA DZ SCT012 SCT018 BKN080